createdAt,value
2023-01-08T00:01:13.380Z,13.17
2023-01-08T00:03:42.153Z,16.03
2023-01-08T00:06:14.075Z,13.43
2023-01-08T00:08:42.499Z,15.63
2023-01-08T00:11:11.205Z,12.87
2023-01-08T00:13:39.501Z,15.20
2023-01-08T00:16:10.465Z,13.27
2023-01-08T00:18:38.721Z,13.67
2023-01-08T00:21:07.029Z,11.10
2023-01-08T00:23:36.764Z,13.47
2023-01-08T00:26:08.236Z,13.13
2023-01-08T00:28:36.816Z,13.73
2023-01-08T00:31:05.854Z,14.70
2023-01-08T00:33:34.691Z,14.60
2023-01-08T00:36:07.689Z,17.90
2023-01-08T00:38:37.207Z,14.30
2023-01-08T00:41:05.524Z,14.97
2023-01-08T00:43:34.286Z,16.60
2023-01-08T00:46:02.557Z,18.63
2023-01-08T00:48:31.174Z,15.90
2023-01-08T00:50:59.285Z,12.70
2023-01-08T00:53:27.384Z,16.70
2023-01-08T00:56:02.657Z,19.50
2023-01-08T00:58:31.253Z,18.23
2023-01-08T01:00:59.582Z,14.57
2023-01-08T01:03:27.789Z,12.27
2023-01-08T01:06:01.964Z,15.00
2023-01-08T01:08:30.087Z,15.00
2023-01-08T01:10:58.762Z,16.33
2023-01-08T01:13:28.354Z,12.73
2023-01-08T01:16:00.221Z,14.00
2023-01-08T01:18:28.777Z,14.73
2023-01-08T01:20:57.077Z,16.07
2023-01-08T01:23:25.178Z,19.90
2023-01-08T01:25:54.558Z,16.83
2023-01-08T01:28:22.682Z,18.63
2023-01-08T01:30:56.833Z,15.23
2023-01-08T01:33:25.017Z,15.37
2023-01-08T01:36:01.403Z,17.80
2023-01-08T01:38:30.157Z,19.73
2023-01-08T01:40:58.486Z,16.67
2023-01-08T01:43:37.995Z,17.30
2023-01-08T01:46:19.717Z,17.37
2023-01-08T01:48:51.164Z,16.70
2023-01-08T01:51:20.446Z,14.83
2023-01-08T01:53:49.425Z,13.77
2023-01-08T01:56:17.888Z,15.77
2023-01-08T01:58:45.996Z,20.87
2023-01-08T02:01:15.934Z,23.40
2023-01-08T02:03:44.246Z,22.37
2023-01-08T02:06:21.059Z,28.77
2023-01-08T02:08:59.820Z,30.17
2023-01-08T02:11:38.889Z,34.43
2023-01-08T02:14:16.719Z,28.77
2023-01-08T02:16:51.646Z,30.50
2023-01-08T02:19:34.595Z,33.33
2023-01-08T02:22:13.084Z,28.07
2023-01-08T02:24:52.943Z,32.33
2023-01-08T02:27:24.918Z,25.47
2023-01-08T02:29:55.242Z,25.17
2023-01-08T02:32:27.200Z,25.57
2023-01-08T02:34:55.762Z,24.40
2023-01-08T02:37:24.066Z,23.33
2023-01-08T02:40:03.207Z,23.63
2023-01-08T02:42:40.071Z,26.10
2023-01-08T02:45:17.855Z,29.93
2023-01-08T02:47:48.323Z,26.03
2023-01-08T02:50:23.159Z,26.97
2023-01-08T02:52:56.564Z,26.77
2023-01-08T02:55:27.391Z,28.53
2023-01-08T02:57:57.649Z,25.33
2023-01-08T03:00:26.259Z,23.30
2023-01-08T03:03:02.077Z,24.73
2023-01-08T03:05:30.286Z,24.57
2023-01-08T03:07:58.659Z,25.10
2023-01-08T03:10:29.821Z,21.57
2023-01-08T03:13:02.963Z,19.77
2023-01-08T03:15:35.421Z,25.13
2023-01-08T03:18:07.560Z,23.40
2023-01-08T03:20:38.622Z,21.20
2023-01-08T03:23:10.347Z,22.60
2023-01-08T03:25:41.780Z,21.47
2023-01-08T03:28:16.591Z,20.90
2023-01-08T03:30:45.482Z,22.07
2023-01-08T03:33:16.509Z,21.40
2023-01-08T03:35:49.300Z,22.83
2023-01-08T03:38:22.191Z,21.63
2023-01-08T03:40:56.056Z,23.03
2023-01-08T03:43:25.950Z,18.67
2023-01-08T03:46:03.028Z,20.33
2023-01-08T03:48:34.485Z,19.17
2023-01-08T03:51:02.712Z,22.50
2023-01-08T03:53:30.950Z,22.80
2023-01-08T03:55:59.952Z,21.90
2023-01-08T03:58:29.538Z,22.93
2023-01-08T04:00:57.659Z,21.73
2023-01-08T04:03:25.800Z,24.17
2023-01-08T04:05:53.871Z,21.90
2023-01-08T04:08:22.032Z,23.97
2023-01-08T04:10:50.091Z,22.57
2023-01-08T04:13:18.199Z,20.63
2023-01-08T04:15:50.504Z,20.60
2023-01-08T04:18:19.163Z,18.53
2023-01-08T04:20:47.766Z,19.87
2023-01-08T04:23:16.601Z,21.77
2023-01-08T04:25:44.692Z,25.80
2023-01-08T04:28:12.788Z,24.30
2023-01-08T04:30:40.868Z,24.77
2023-01-08T04:33:10.444Z,28.03
2023-01-08T04:35:38.562Z,25.57
2023-01-08T04:38:06.688Z,24.93
2023-01-08T04:40:35.352Z,20.53
2023-01-08T04:43:03.480Z,22.07
2023-01-08T04:45:31.627Z,23.97
2023-01-08T04:48:00.886Z,23.03
2023-01-08T04:50:30.406Z,22.70
2023-01-08T04:53:00.582Z,26.17
2023-01-08T04:55:28.657Z,23.37
2023-01-08T04:57:56.763Z,20.20
2023-01-08T05:00:24.831Z,24.93
2023-01-08T05:02:53.226Z,22.77
2023-01-08T05:05:21.337Z,18.67
2023-01-08T05:07:50.869Z,22.17
2023-01-08T05:10:19.056Z,19.40
2023-01-08T05:12:47.146Z,21.00
2023-01-08T05:15:15.244Z,24.03
2023-01-08T05:17:43.375Z,18.77
2023-01-08T05:20:12.253Z,19.13
2023-01-08T05:22:40.386Z,15.57
2023-01-08T05:25:10.571Z,16.93
2023-01-08T05:27:38.808Z,20.27
2023-01-08T05:30:08.345Z,16.77
2023-01-08T05:32:36.477Z,17.13
2023-01-08T05:35:04.929Z,21.53
2023-01-08T05:37:35.185Z,18.77
2023-01-08T05:40:03.366Z,16.07
2023-01-08T05:42:35.555Z,18.97
2023-01-08T05:45:04.104Z,21.27
2023-01-08T05:47:32.995Z,16.97
2023-01-08T05:50:01.493Z,21.83
2023-01-08T05:52:30.186Z,18.90
2023-01-08T05:55:00.214Z,17.63
2023-01-08T05:57:28.484Z,17.27
2023-01-08T05:59:57.973Z,19.43
2023-01-08T06:02:26.211Z,24.20
2023-01-08T06:04:54.440Z,18.70
2023-01-08T06:07:22.550Z,24.83
2023-01-08T06:09:50.640Z,23.60
2023-01-08T06:12:18.819Z,21.67
2023-01-08T06:14:47.125Z,23.67
2023-01-08T06:17:17.316Z,22.37
2023-01-08T06:19:47.562Z,22.47
2023-01-08T06:22:15.702Z,24.60
2023-01-08T06:24:43.880Z,24.03
2023-01-08T06:27:11.977Z,28.27
2023-01-08T06:29:40.112Z,27.97
2023-01-08T06:32:08.238Z,30.93
2023-01-08T06:34:37.771Z,21.93
2023-01-08T06:37:05.876Z,24.57
2023-01-08T06:39:34.026Z,29.70
2023-01-08T06:42:02.117Z,23.43
2023-01-08T06:44:30.236Z,23.20
2023-01-08T06:46:58.331Z,26.37
2023-01-08T06:49:26.493Z,19.77
2023-01-08T06:51:57.281Z,27.00
2023-01-08T06:54:25.396Z,20.37
2023-01-08T06:56:54.460Z,24.50
2023-01-08T06:59:23.342Z,24.57
2023-01-08T07:01:51.755Z,22.60
2023-01-08T07:04:20.409Z,21.40
2023-01-08T07:06:49.352Z,18.33
2023-01-08T07:09:18.935Z,21.87
2023-01-08T07:11:47.038Z,19.77
2023-01-08T07:14:15.776Z,21.17
2023-01-08T07:16:43.916Z,20.40
2023-01-08T07:19:12.168Z,23.40
2023-01-08T07:21:40.512Z,20.97
2023-01-08T07:24:09.028Z,23.97
2023-01-08T07:26:39.715Z,22.83
2023-01-08T07:29:07.899Z,21.57
2023-01-08T07:31:36.097Z,21.60
2023-01-08T07:34:04.201Z,21.07
2023-01-08T07:36:32.306Z,18.57
2023-01-08T07:39:00.454Z,21.33
2023-01-08T07:41:28.750Z,19.20
2023-01-08T07:43:59.285Z,18.33
2023-01-08T07:46:27.504Z,24.50
2023-01-08T07:48:56.868Z,25.63
2023-01-08T07:51:25.088Z,16.70
2023-01-08T07:53:53.200Z,20.37
2023-01-08T07:56:25.895Z,17.73
2023-01-08T07:58:54.245Z,15.87
2023-01-08T08:01:24.446Z,15.53
2023-01-08T08:03:52.678Z,18.13
2023-01-08T08:06:20.821Z,16.73
2023-01-08T08:08:48.994Z,18.67
2023-01-08T08:11:17.074Z,17.07
2023-01-08T08:13:45.220Z,14.07
2023-01-08T08:16:13.710Z,17.37
2023-01-08T08:18:43.346Z,13.73
2023-01-08T08:21:11.565Z,11.00
2023-01-08T08:23:39.757Z,14.13
2023-01-08T08:26:07.919Z,13.47
2023-01-08T08:28:36.026Z,11.47
2023-01-08T08:31:04.263Z,11.73
2023-01-08T08:33:32.467Z,14.10
2023-01-08T08:36:02.033Z,11.60
2023-01-08T08:38:30.231Z,10.43
2023-01-08T08:40:58.524Z,11.67
2023-01-08T08:43:26.665Z,10.97
2023-01-08T08:45:56.998Z,11.37
2023-01-08T08:48:25.396Z,13.00
2023-01-08T08:50:53.568Z,11.33
2023-01-08T08:53:23.155Z,11.00
2023-01-08T08:55:51.396Z,19.57
2023-01-08T08:58:21.122Z,12.43
2023-01-08T09:00:49.271Z,17.17
2023-01-08T09:03:18.088Z,16.37
2023-01-08T09:05:46.693Z,14.93
2023-01-08T09:08:14.855Z,12.93
2023-01-08T09:10:44.379Z,18.47
2023-01-08T09:13:13.209Z,21.00
2023-01-08T09:15:41.427Z,15.60
2023-01-08T09:18:09.522Z,17.10
2023-01-08T09:20:37.862Z,15.13
2023-01-08T09:23:07.130Z,16.00
2023-01-08T09:25:35.347Z,20.97
2023-01-08T09:28:07.306Z,17.63
2023-01-08T09:30:36.019Z,17.23
2023-01-08T09:33:04.982Z,14.50
2023-01-08T09:35:33.777Z,18.57
2023-01-08T09:38:02.075Z,17.87
2023-01-08T09:40:41.035Z,18.80
2023-01-08T09:43:18.711Z,17.37
2023-01-08T09:45:52.789Z,17.23
2023-01-08T09:48:25.142Z,16.00
2023-01-08T09:50:53.592Z,16.53
2023-01-08T09:53:22.025Z,16.57
2023-01-08T09:56:09.260Z,13.80
2023-01-08T09:58:42.896Z,15.43
2023-01-08T10:01:14.804Z,16.53
2023-01-08T10:03:46.367Z,13.30
2023-01-08T10:06:16.215Z,16.70
2023-01-08T10:11:16.566Z,14.37
2023-01-08T10:13:51.356Z,12.17
2023-01-08T10:16:28.791Z,12.37
2023-01-08T10:18:57.109Z,12.80
2023-01-08T10:21:30.729Z,12.43
2023-01-08T10:23:58.951Z,10.70
2023-01-08T10:26:29.455Z,13.40
2023-01-08T10:29:14.644Z,14.10
2023-01-08T10:31:52.375Z,10.43
2023-01-08T10:34:29.944Z,11.67
2023-01-08T10:36:58.455Z,15.10
2023-01-08T10:39:29.823Z,12.43
2023-01-08T10:42:05.590Z,9.77
2023-01-08T10:44:35.941Z,8.80
2023-01-08T10:47:06.710Z,7.43
2023-01-08T10:49:39.285Z,7.53
2023-01-08T10:52:07.719Z,8.23
2023-01-08T10:54:38.017Z,11.43
2023-01-08T10:57:21.741Z,10.50
2023-01-08T10:59:51.426Z,10.67
2023-01-08T11:02:29.175Z,10.77
2023-01-08T11:04:57.744Z,8.87
2023-01-08T11:07:26.962Z,13.77
2023-01-08T11:09:55.990Z,7.97
2023-01-08T11:12:36.961Z,7.47
2023-01-08T11:15:09.379Z,12.83
2023-01-08T11:17:37.558Z,8.07
2023-01-08T11:20:11.137Z,8.00
2023-01-08T11:22:39.488Z,11.60
2023-01-08T11:25:14.579Z,9.40
2023-01-08T11:27:45.604Z,8.97
2023-01-08T11:30:21.128Z,9.40
2023-01-08T11:32:55.003Z,13.00
2023-01-08T11:35:28.565Z,9.70
2023-01-08T11:37:59.704Z,8.03
2023-01-08T11:40:38.644Z,7.00
2023-01-08T11:43:28.994Z,6.70
2023-01-08T11:46:14.849Z,7.10
2023-01-08T11:48:56.410Z,8.47
2023-01-08T11:51:53.992Z,10.13
2023-01-08T11:54:38.131Z,7.73
2023-01-08T11:57:23.869Z,6.90
2023-01-08T12:00:05.087Z,12.03
2023-01-08T12:02:51.885Z,9.47
2023-01-08T12:05:45.181Z,10.90
2023-01-08T12:08:22.853Z,12.93
2023-01-08T12:11:03.928Z,12.17
2023-01-08T12:13:51.689Z,8.53
2023-01-08T12:16:33.306Z,8.37
2023-01-08T12:19:15.523Z,6.63
2023-01-08T12:21:59.313Z,9.00
2023-01-08T12:24:47.454Z,8.93
2023-01-08T12:27:29.826Z,8.17
2023-01-08T12:30:23.912Z,7.47
2023-01-08T12:32:57.453Z,7.37
2023-01-08T12:35:31.143Z,8.27
2023-01-08T12:38:05.241Z,10.17
2023-01-08T12:40:36.612Z,10.17
2023-01-08T12:43:12.949Z,11.57
2023-01-08T12:45:46.239Z,7.40
2023-01-08T12:48:18.040Z,10.03
2023-01-08T12:50:58.769Z,8.47
2023-01-08T12:53:38.343Z,8.50
2023-01-08T12:56:12.586Z,8.97
2023-01-08T12:58:52.766Z,9.83
2023-01-08T13:01:32.858Z,8.13
2023-01-08T13:04:04.320Z,9.17
2023-01-08T13:06:34.281Z,9.77
2023-01-08T13:09:02.868Z,9.63
2023-01-08T13:11:33.518Z,8.43
2023-01-08T13:14:04.334Z,8.03
2023-01-08T13:16:40.529Z,9.57
2023-01-08T13:19:23.427Z,9.73
2023-01-08T13:21:56.045Z,9.10
2023-01-08T13:24:32.393Z,10.93
2023-01-08T13:27:28.287Z,12.40
2023-01-08T13:29:58.224Z,15.63
2023-01-08T13:32:45.642Z,11.90
2023-01-08T13:35:25.992Z,13.90
2023-01-08T13:38:14.675Z,14.27
2023-01-08T13:41:07.046Z,9.20
2023-01-08T13:43:40.212Z,10.77
2023-01-08T13:46:16.224Z,18.50
2023-01-08T13:48:52.019Z,13.00
2023-01-08T13:51:34.811Z,14.30
2023-01-08T13:54:17.015Z,14.63
2023-01-08T13:56:47.064Z,16.67
2023-01-08T13:59:32.502Z,11.20
2023-01-08T14:02:01.568Z,11.47
2023-01-08T14:04:29.830Z,10.97
2023-01-08T14:07:13.991Z,11.23
2023-01-08T14:09:43.684Z,9.87
2023-01-08T14:12:15.506Z,11.17
2023-01-08T14:14:48.879Z,10.07
2023-01-08T14:17:18.271Z,10.77
2023-01-08T14:19:47.020Z,9.00
2023-01-08T14:22:20.843Z,11.03
2023-01-08T14:24:56.380Z,13.40
2023-01-08T14:27:26.599Z,7.90
2023-01-08T14:29:55.648Z,12.20
2023-01-08T14:32:25.599Z,9.67
2023-01-08T14:34:55.228Z,9.13
2023-01-08T14:37:23.505Z,10.37
2023-01-08T14:39:54.878Z,9.33
2023-01-08T14:42:44.352Z,15.43
2023-01-08T14:45:19.699Z,10.20
2023-01-08T14:47:50.360Z,10.13
2023-01-08T14:50:21.417Z,9.23
2023-01-08T14:52:50.644Z,12.17
2023-01-08T14:55:22.020Z,10.97
2023-01-08T14:57:53.224Z,12.13
2023-01-08T15:00:24.699Z,11.43
2023-01-08T15:02:52.880Z,12.87
2023-01-08T15:05:25.382Z,11.20
2023-01-08T15:08:00.270Z,9.87
2023-01-08T15:10:36.682Z,13.13
2023-01-08T15:13:07.687Z,11.17
2023-01-08T15:15:42.824Z,12.67
2023-01-08T15:18:13.858Z,10.17
2023-01-08T15:20:46.541Z,11.17
2023-01-08T15:23:27.757Z,14.43
2023-01-08T15:25:58.058Z,10.27
2023-01-08T15:28:26.883Z,14.87
2023-01-08T15:30:55.272Z,13.37
2023-01-08T15:33:25.880Z,11.17
2023-01-08T15:35:54.139Z,14.33
2023-01-08T15:38:23.933Z,18.40
2023-01-08T15:40:54.275Z,17.47
2023-01-08T15:43:23.872Z,14.87
2023-01-08T15:45:52.455Z,16.63
2023-01-08T15:48:20.738Z,19.57
2023-01-08T15:50:49.072Z,17.47
2023-01-08T15:53:19.628Z,22.23
2023-01-08T15:55:48.153Z,22.33
2023-01-08T15:58:17.631Z,18.73
2023-01-08T16:00:48.372Z,13.33
2023-01-08T16:03:17.403Z,16.13
2023-01-08T16:05:45.800Z,17.93
2023-01-08T16:08:14.577Z,18.90
2023-01-08T16:10:43.213Z,20.80
2023-01-08T16:13:12.310Z,27.43
2023-01-08T16:15:41.316Z,22.93
2023-01-08T16:18:11.200Z,24.27
2023-01-08T16:20:40.001Z,25.53
2023-01-08T16:23:08.451Z,26.87
2023-01-08T16:25:39.870Z,26.10
2023-01-08T16:28:08.525Z,29.20
2023-01-08T16:30:37.631Z,26.00
2023-01-08T16:33:06.371Z,27.77
2023-01-08T16:35:37.387Z,24.03
2023-01-08T16:38:06.155Z,24.50
2023-01-08T16:40:34.804Z,26.90
2023-01-08T16:43:03.471Z,28.70
2023-01-08T16:45:32.371Z,24.43
2023-01-08T16:48:02.481Z,22.00
2023-01-08T16:50:38.384Z,26.60
2023-01-08T16:53:08.304Z,25.37
2023-01-08T16:55:39.619Z,22.00
2023-01-08T16:58:09.053Z,17.23
2023-01-08T17:00:39.382Z,21.63
2023-01-08T17:03:10.307Z,25.40
2023-01-08T17:05:40.519Z,20.63
2023-01-08T17:08:11.123Z,23.63
2023-01-08T17:10:40.786Z,22.47
2023-01-08T17:13:09.109Z,23.50
2023-01-08T17:15:38.354Z,20.83
2023-01-08T17:18:06.847Z,21.10
2023-01-08T17:20:36.609Z,21.77
2023-01-08T17:23:07.012Z,28.10
2023-01-08T17:25:35.662Z,20.33
2023-01-08T17:28:04.330Z,28.17
2023-01-08T17:30:36.466Z,17.80
2023-01-08T17:33:05.142Z,17.67
2023-01-08T17:35:33.989Z,16.43
2023-01-08T17:38:02.692Z,20.43
2023-01-08T17:40:32.882Z,17.60
2023-01-08T17:43:01.695Z,15.03
2023-01-08T17:45:30.513Z,18.17
2023-01-08T17:47:59.470Z,20.47
2023-01-08T17:50:28.700Z,16.07
2023-01-08T17:52:59.213Z,18.57
2023-01-08T17:55:29.616Z,21.87
2023-01-08T17:57:59.889Z,23.13
2023-01-08T18:00:28.972Z,27.63
2023-01-08T18:02:58.552Z,24.13
2023-01-08T18:05:28.018Z,21.23
2023-01-08T18:07:57.185Z,28.17
2023-01-08T18:10:26.379Z,20.03
2023-01-08T18:12:55.282Z,19.07
2023-01-08T18:15:25.055Z,19.17
2023-01-08T18:17:53.244Z,16.23
2023-01-08T18:20:21.927Z,14.93
2023-01-08T18:22:51.266Z,13.43
2023-01-08T18:25:20.491Z,22.47
2023-01-08T18:27:49.739Z,22.97
2023-01-08T18:30:18.893Z,22.87
2023-01-08T18:32:49.104Z,23.50
2023-01-08T18:35:19.529Z,20.13
2023-01-08T18:37:48.087Z,22.10
2023-01-08T18:40:17.277Z,19.17
2023-01-08T18:42:45.872Z,16.80
2023-01-08T18:45:17.774Z,20.13
2023-01-08T18:47:46.830Z,17.17
2023-01-08T18:50:17.748Z,18.33
2023-01-08T18:52:46.617Z,17.07
2023-01-08T18:55:15.944Z,18.43
2023-01-08T18:57:47.530Z,16.07
2023-01-08T19:00:19.034Z,18.17
2023-01-08T19:02:47.725Z,20.33
2023-01-08T19:05:18.693Z,18.50
2023-01-08T19:07:48.692Z,16.83
2023-01-08T19:10:18.175Z,16.63
2023-01-08T19:12:48.343Z,13.87
2023-01-08T19:15:17.751Z,15.80
2023-01-08T19:17:46.670Z,13.30
2023-01-08T19:20:15.807Z,15.07
2023-01-08T19:22:46.481Z,16.77
2023-01-08T19:25:16.392Z,16.97
2023-01-08T19:27:45.668Z,13.43
2023-01-08T19:30:15.003Z,18.53
2023-01-08T19:32:44.780Z,14.37
2023-01-08T19:35:13.862Z,14.77
2023-01-08T19:37:44.094Z,20.27
2023-01-08T19:40:16.091Z,19.97
2023-01-08T19:43:03.767Z,18.03
2023-01-08T19:45:32.828Z,19.43
2023-01-08T19:48:02.151Z,18.37
2023-01-08T19:50:32.506Z,20.80
2023-01-08T19:53:03.796Z,20.53
2023-01-08T19:55:37.803Z,23.27
2023-01-08T19:58:06.965Z,21.47
2023-01-08T20:00:37.576Z,23.10
2023-01-08T20:03:07.421Z,18.73
2023-01-08T20:05:37.442Z,16.50
2023-01-08T20:08:07.247Z,16.53
2023-01-08T20:10:37.823Z,19.03
2023-01-08T20:13:07.612Z,23.13
2023-01-08T20:15:37.280Z,15.50
2023-01-08T20:18:10.461Z,14.47
2023-01-08T20:20:39.360Z,16.23
2023-01-08T20:23:10.679Z,20.37
2023-01-08T20:25:42.144Z,17.50
2023-01-08T20:28:12.385Z,23.00
2023-01-08T20:30:40.705Z,16.67
2023-01-08T20:33:10.603Z,16.63
2023-01-08T20:35:40.117Z,14.37
2023-01-08T20:38:11.863Z,16.43
2023-01-08T20:40:42.905Z,13.87
2023-01-08T20:43:12.562Z,17.20
2023-01-08T20:45:42.764Z,18.47
2023-01-08T20:48:11.298Z,17.73
2023-01-08T20:50:39.545Z,16.33
2023-01-08T20:53:07.755Z,15.67
2023-01-08T20:55:38.071Z,17.97
2023-01-08T20:58:07.699Z,23.43
2023-01-08T21:00:36.584Z,19.07
2023-01-08T21:03:05.345Z,17.70
2023-01-08T21:05:36.302Z,16.60
2023-01-08T21:08:05.095Z,20.83
2023-01-08T21:10:34.058Z,18.87
2023-01-08T21:13:03.112Z,17.63
2023-01-08T21:15:38.835Z,21.63
2023-01-08T21:18:07.759Z,24.33
2023-01-08T21:20:36.189Z,28.33
2023-01-08T21:23:04.587Z,27.70
2023-01-08T21:25:34.967Z,21.23
2023-01-08T21:28:03.384Z,20.47
2023-01-08T21:30:31.632Z,13.77
2023-01-08T21:33:01.172Z,18.23
2023-01-08T21:35:29.440Z,15.20
2023-01-08T21:37:57.547Z,14.47
2023-01-08T21:40:25.643Z,15.93
2023-01-08T21:43:11.054Z,13.47
2023-01-08T21:45:39.244Z,14.73
2023-01-08T21:48:08.833Z,13.67
2023-01-08T21:50:37.065Z,11.43
2023-01-08T21:53:22.427Z,13.00
2023-01-08T21:55:50.589Z,16.23
2023-01-08T21:58:18.669Z,18.30
2023-01-08T22:00:46.851Z,13.33
2023-01-08T22:03:16.419Z,11.90
2023-01-08T22:05:44.577Z,13.10
2023-01-08T22:08:18.418Z,12.60
2023-01-08T22:10:46.580Z,14.97
2023-01-08T22:13:14.691Z,12.10
2023-01-08T22:15:42.949Z,12.67
2023-01-08T22:18:11.113Z,12.70
2023-01-08T22:20:41.723Z,11.77
2023-01-08T22:23:09.965Z,11.23
2023-01-08T22:25:40.899Z,11.93
2023-01-08T22:28:11.704Z,15.23
2023-01-08T22:30:40.888Z,13.57
2023-01-08T22:33:09.058Z,12.37
2023-01-08T22:35:38.394Z,12.43
2023-01-08T22:38:08.068Z,12.20
2023-01-08T22:40:36.244Z,12.83
2023-01-08T22:43:04.423Z,11.67
2023-01-08T22:45:32.879Z,13.13
2023-01-08T22:48:00.959Z,10.70
2023-01-08T22:50:29.057Z,12.40
2023-01-08T22:53:00.506Z,10.03
2023-01-08T22:55:30.048Z,9.77
2023-01-08T22:57:58.176Z,14.03
2023-01-08T23:00:26.531Z,16.73
2023-01-08T23:02:54.632Z,14.33
2023-01-08T23:05:22.753Z,14.03
2023-01-08T23:07:50.842Z,11.90
2023-01-08T23:10:19.187Z,10.50
2023-01-08T23:12:50.305Z,14.90
2023-01-08T23:15:19.032Z,11.10
2023-01-08T23:17:52.186Z,11.03
2023-01-08T23:20:21.719Z,12.73
2023-01-08T23:22:50.158Z,12.50
2023-01-08T23:25:19.147Z,10.73
2023-01-08T23:27:48.684Z,16.10
2023-01-08T23:30:16.822Z,11.00
2023-01-08T23:32:44.885Z,13.10
2023-01-08T23:35:13.025Z,12.13
2023-01-08T23:37:41.156Z,10.30
2023-01-08T23:40:11.693Z,15.50
2023-01-08T23:43:09.149Z,10.23
2023-01-08T23:45:37.582Z,13.37
2023-01-08T23:48:06.646Z,12.77
2023-01-08T23:50:34.827Z,13.43
2023-01-08T23:53:03.405Z,11.73
2023-01-08T23:55:31.549Z,10.30
2023-01-08T23:58:00.350Z,11.67
